sensor_id;sensor_type;location;lat;lon;timestamp;pressure;altitude;pressure_sealevel;temperature;humidity
71105;BME280;58760;48.716;8.962;2023-08-17T00:04:35;96641.94;;;19.49;100.00
71105;BME280;58760;48.716;8.962;2023-08-17T00:07:34;96631.03;;;19.44;100.00
71105;BME280;58760;48.716;8.962;2023-08-17T00:10:35;96646.34;;;19.44;100.00
71105;BME280;58760;48.716;8.962;2023-08-17T00:13:38;96645.72;;;19.42;100.00
71105;BME280;58760;48.716;8.962;2023-08-17T00:16:50;96633.97;;;19.36;100.00
71105;BME280;58760;48.716;8.962;2023-08-17T00:23:02;96650.44;;;19.28;100.00
71105;BME280;58760;48.716;8.962;2023-08-17T00:26:34;96641.38;;;19.22;100.00
71105;BME280;58760;48.716;8.962;2023-08-17T00:29:38;96645.19;;;19.15;100.00
71105;BME280;58760;48.716;8.962;2023-08-17T00:32:34;96635.84;;;19.17;100.00
71105;BME280;58760;48.716;8.962;2023-08-17T00:35:34;96631.88;;;19.20;100.00
71105;BME280;58760;48.716;8.962;2023-08-17T00:38:23;96628.13;;;19.03;100.00
71105;BME280;58760;48.716;8.962;2023-08-17T00:48:31;96623.56;;;18.85;100.00
71105;BME280;58760;48.716;8.962;2023-08-17T00:52:28;96615.72;;;18.84;100.00
71105;BME280;58760;48.716;8.962;2023-08-17T00:55:59;96605.19;;;18.82;100.00
71105;BME280;58760;48.716;8.962;2023-08-17T02:08:50;96601.75;;;18.75;100.00
71105;BME280;58760;48.716;8.962;2023-08-17T02:12:03;96607.72;;;18.77;100.00
71105;BME280;58760;48.716;8.962;2023-08-17T02:15:03;96600.03;;;18.80;100.00
71105;BME280;58760;48.716;8.962;2023-08-17T02:18:01;96600.41;;;18.84;100.00
71105;BME280;58760;48.716;8.962;2023-08-17T02:20:47;96601.69;;;18.82;100.00
71105;BME280;58760;48.716;8.962;2023-08-17T02:24:11;96599.75;;;18.89;100.00
71105;BME280;58760;48.716;8.962;2023-08-17T02:27:17;96595.69;;;18.79;100.00
71105;BME280;58760;48.716;8.962;2023-08-17T02:30:30;96594.28;;;18.77;100.00
71105;BME280;58760;48.716;8.962;2023-08-17T02:33:32;96586.59;;;18.80;100.00
71105;BME280;58760;48.716;8.962;2023-08-17T02:36:40;96581.81;;;18.83;100.00
71105;BME280;58760;48.716;8.962;2023-08-17T02:39:40;96585.31;;;18.83;100.00
71105;BME280;58760;48.716;8.962;2023-08-17T02:42:50;96579.72;;;18.85;100.00
71105;BME280;58760;48.716;8.962;2023-08-17T02:49:24;96576.13;;;18.91;100.00
71105;BME280;58760;48.716;8.962;2023-08-17T02:52:17;96565.97;;;18.93;100.00
71105;BME280;58760;48.716;8.962;2023-08-17T02:55:22;96567.63;;;18.94;100.00
71105;BME280;58760;48.716;8.962;2023-08-17T02:58:30;96562.03;;;18.95;100.00
71105;BME280;58760;48.716;8.962;2023-08-17T03:01:53;96564.72;;;18.95;100.00
71105;BME280;58760;48.716;8.962;2023-08-17T03:05:04;96561.78;;;18.97;100.00
71105;BME280;58760;48.716;8.962;2023-08-17T03:08:13;96556.88;;;18.94;100.00
71105;BME280;58760;48.716;8.962;2023-08-17T03:11:14;96552.97;;;18.90;100.00
71105;BME280;58760;48.716;8.962;2023-08-17T03:14:20;96554.03;;;18.89;100.00
71105;BME280;58760;48.716;8.962;2023-08-17T03:17:13;96545.16;;;18.88;100.00
71105;BME280;58760;48.716;8.962;2023-08-17T03:20:46;96537.28;;;18.87;100.00
71105;BME280;58760;48.716;8.962;2023-08-17T03:23:37;96539.53;;;18.90;100.00
71105;BME280;58760;48.716;8.962;2023-08-17T03:30:41;96536.69;;;18.85;100.00
71105;BME280;58760;48.716;8.962;2023-08-17T03:34:22;96537.16;;;18.82;100.00
71105;BME280;58760;48.716;8.962;2023-08-17T03:37:56;96540.44;;;18.84;100.00
71105;BME280;58760;48.716;8.962;2023-08-17T03:41:50;96539.47;;;18.78;100.00
71105;BME280;58760;48.716;8.962;2023-08-17T03:44:44;96540.88;;;18.80;100.00
71105;BME280;58760;48.716;8.962;2023-08-17T03:51:21;96532.22;;;18.78;100.00
71105;BME280;58760;48.716;8.962;2023-08-17T03:54:23;96542.38;;;18.76;100.00
71105;BME280;58760;48.716;8.962;2023-08-17T03:58:21;96541.31;;;18.77;100.00
71105;BME280;58760;48.716;8.962;2023-08-17T04:01:43;96545.88;;;18.77;100.00
71105;BME280;58760;48.716;8.962;2023-08-17T04:05:18;96555.81;;;18.76;100.00
71105;BME280;58760;48.716;8.962;2023-08-17T04:08:25;96559.56;;;18.75;100.00
71105;BME280;58760;48.716;8.962;2023-08-17T04:11:44;96564.75;;;18.70;100.00
71105;BME280;58760;48.716;8.962;2023-08-17T04:15:14;96558.94;;;18.73;100.00
71105;BME280;58760;48.716;8.962;2023-08-17T04:18:25;96564.31;;;18.73;100.00
71105;BME280;58760;48.716;8.962;2023-08-17T04:21:36;96565.84;;;18.69;100.00
71105;BME280;58760;48.716;8.962;2023-08-17T04:25:04;96570.97;;;18.71;100.00
71105;BME280;58760;48.716;8.962;2023-08-17T04:28:28;96580.91;;;18.70;100.00
71105;BME280;58760;48.716;8.962;2023-08-17T04:31:45;96581.06;;;18.75;100.00
71105;BME280;58760;48.716;8.962;2023-08-17T04:35:00;96582.69;;;18.76;100.00
71105;BME280;58760;48.716;8.962;2023-08-17T04:38:25;96574.03;;;18.74;100.00
71105;BME280;58760;48.716;8.962;2023-08-17T04:45:26;96572.84;;;18.70;100.00
71105;BME280;58760;48.716;8.962;2023-08-17T04:48:48;96574.78;;;18.82;100.00
71105;BME280;58760;48.716;8.962;2023-08-17T04:52:10;96578.53;;;18.80;100.00
71105;BME280;58760;48.716;8.962;2023-08-17T04:55:20;96573.22;;;18.74;100.00
71105;BME280;58760;48.716;8.962;2023-08-17T04:58:58;96577.56;;;18.75;100.00
71105;BME280;58760;48.716;8.962;2023-08-17T05:05:18;96580.75;;;18.84;100.00
71105;BME280;58760;48.716;8.962;2023-08-17T05:08:56;96594.22;;;18.84;100.00
71105;BME280;58760;48.716;8.962;2023-08-17T05:12:12;96594.59;;;18.87;100.00
71105;BME280;58760;48.716;8.962;2023-08-17T05:15:25;96590.03;;;18.88;100.00
71105;BME280;58760;48.716;8.962;2023-08-17T05:18:31;96596.00;;;18.90;100.00
71105;BME280;58760;48.716;8.962;2023-08-17T05:21:27;96584.59;;;18.94;100.00
71105;BME280;58760;48.716;8.962;2023-08-17T05:24:16;96589.00;;;18.89;100.00
71105;BME280;58760;48.716;8.962;2023-08-17T05:27:35;96585.03;;;18.91;100.00
71105;BME280;58760;48.716;8.962;2023-08-17T05:30:15;96592.41;;;18.96;100.00
71105;BME280;58760;48.716;8.962;2023-08-17T05:33:08;96590.72;;;19.01;100.00
71105;BME280;58760;48.716;8.962;2023-08-17T05:36:22;96580.34;;;19.05;100.00
71105;BME280;58760;48.716;8.962;2023-08-17T05:39:07;96586.75;;;19.04;100.00
71105;BME280;58760;48.716;8.962;2023-08-17T05:42:11;96595.94;;;18.96;100.00
71105;BME280;58760;48.716;8.962;2023-08-17T05:44:58;96600.72;;;18.94;100.00
71105;BME280;58760;48.716;8.962;2023-08-17T05:47:47;96605.44;;;18.99;100.00
71105;BME280;58760;48.716;8.962;2023-08-17T05:50:51;96609.75;;;19.00;100.00
71105;BME280;58760;48.716;8.962;2023-08-17T05:53:55;96613.41;;;18.87;100.00
71105;BME280;58760;48.716;8.962;2023-08-17T05:56:51;96611.09;;;18.91;100.00
71105;BME280;58760;48.716;8.962;2023-08-17T05:59:44;96617.97;;;18.87;100.00
71105;BME280;58760;48.716;8.962;2023-08-17T06:02:32;96617.38;;;18.85;100.00
71105;BME280;58760;48.716;8.962;2023-08-17T06:05:28;96617.19;;;18.79;100.00
71105;BME280;58760;48.716;8.962;2023-08-17T06:08:29;96619.25;;;18.84;100.00
71105;BME280;58760;48.716;8.962;2023-08-17T06:11:33;96620.13;;;18.96;100.00
71105;BME280;58760;48.716;8.962;2023-08-17T06:14:19;96619.16;;;18.91;100.00
71105;BME280;58760;48.716;8.962;2023-08-17T06:17:06;96613.06;;;19.02;100.00
71105;BME280;58760;48.716;8.962;2023-08-17T06:20:11;96609.38;;;18.96;100.00
71105;BME280;58760;48.716;8.962;2023-08-17T06:23:01;96615.31;;;19.05;100.00
71105;BME280;58760;48.716;8.962;2023-08-17T06:30:16;96615.44;;;19.10;100.00
71105;BME280;58760;48.716;8.962;2023-08-17T06:33:10;96616.34;;;19.04;100.00
71105;BME280;58760;48.716;8.962;2023-08-17T06:40:21;96606.84;;;19.19;100.00
71105;BME280;58760;48.716;8.962;2023-08-17T06:43:17;96611.13;;;19.27;100.00
71105;BME280;58760;48.716;8.962;2023-08-17T06:46:17;96611.94;;;19.27;100.00
71105;BME280;58760;48.716;8.962;2023-08-17T06:49:30;96615.81;;;19.31;100.00
71105;BME280;58760;48.716;8.962;2023-08-17T06:52:19;96609.50;;;19.44;100.00
71105;BME280;58760;48.716;8.962;2023-08-17T06:55:14;96615.84;;;19.50;100.00
71105;BME280;58760;48.716;8.962;2023-08-17T06:58:40;96609.91;;;19.59;100.00
71105;BME280;58760;48.716;8.962;2023-08-17T07:02:17;96620.09;;;19.57;100.00
71105;BME280;58760;48.716;8.962;2023-08-17T07:05:13;96623.16;;;19.43;100.00
71105;BME280;58760;48.716;8.962;2023-08-17T07:08:10;96616.50;;;19.45;100.00
71105;BME280;58760;48.716;8.962;2023-08-17T07:11:03;96611.34;;;19.44;100.00
71105;BME280;58760;48.716;8.962;2023-08-17T07:14:17;96611.72;;;19.47;100.00
71105;BME280;58760;48.716;8.962;2023-08-17T07:17:18;96618.38;;;19.45;100.00
71105;BME280;58760;48.716;8.962;2023-08-17T07:20:18;96622.09;;;19.62;100.00
71105;BME280;58760;48.716;8.962;2023-08-17T07:23:14;96612.91;;;19.81;100.00
71105;BME280;58760;48.716;8.962;2023-08-17T07:30:07;96619.25;;;19.87;100.00
71105;BME280;58760;48.716;8.962;2023-08-17T07:33:18;96620.75;;;20.12;100.00
71105;BME280;58760;48.716;8.962;2023-08-17T07:36:41;96618.63;;;20.03;100.00
71105;BME280;58760;48.716;8.962;2023-08-17T07:39:39;96623.31;;;20.07;100.00
71105;BME280;58760;48.716;8.962;2023-08-17T07:42:27;96623.78;;;20.34;100.00
71105;BME280;58760;48.716;8.962;2023-08-17T07:45:39;96628.22;;;20.52;100.00
71105;BME280;58760;48.716;8.962;2023-08-17T07:48:28;96628.25;;;20.63;100.00
71105;BME280;58760;48.716;8.962;2023-08-17T07:51:19;96631.78;;;20.64;100.00
71105;BME280;58760;48.716;8.962;2023-08-17T07:54:21;96629.19;;;20.57;100.00
71105;BME280;58760;48.716;8.962;2023-08-17T07:57:18;96621.47;;;20.72;100.00
71105;BME280;58760;48.716;8.962;2023-08-17T08:00:17;96627.44;;;20.63;100.00
71105;BME280;58760;48.716;8.962;2023-08-17T08:03:23;96628.47;;;20.50;100.00
71105;BME280;58760;48.716;8.962;2023-08-17T08:06:38;96626.13;;;20.65;100.00
71105;BME280;58760;48.716;8.962;2023-08-17T08:09:33;96620.28;;;20.68;100.00
71105;BME280;58760;48.716;8.962;2023-08-17T08:12:19;96617.13;;;20.60;100.00
71105;BME280;58760;48.716;8.962;2023-08-17T08:15:18;96625.09;;;20.55;100.00
71105;BME280;58760;48.716;8.962;2023-08-17T08:18:23;96620.88;;;20.82;100.00
71105;BME280;58760;48.716;8.962;2023-08-17T08:21:09;96615.50;;;20.70;100.00
71105;BME280;58760;48.716;8.962;2023-08-17T08:24:38;96616.78;;;20.79;100.00
71105;BME280;58760;48.716;8.962;2023-08-17T08:27:34;96625.56;;;20.75;100.00
71105;BME280;58760;48.716;8.962;2023-08-17T08:30:21;96621.69;;;20.94;100.00
71105;BME280;58760;48.716;8.962;2023-08-17T08:33:35;96620.75;;;21.00;100.00
71105;BME280;58760;48.716;8.962;2023-08-17T08:36:33;96620.03;;;21.05;100.00
71105;BME280;58760;48.716;8.962;2023-08-17T08:40:11;96618.06;;;21.00;100.00
71105;BME280;58760;48.716;8.962;2023-08-17T08:44:22;96617.94;;;21.07;100.00
71105;BME280;58760;48.716;8.962;2023-08-17T08:47:52;96618.06;;;21.00;100.00
71105;BME280;58760;48.716;8.962;2023-08-17T08:55:07;96615.59;;;21.22;100.00
71105;BME280;58760;48.716;8.962;2023-08-17T09:05:41;96601.84;;;21.63;96.66
71105;BME280;58760;48.716;8.962;2023-08-17T09:08:59;96603.50;;;21.64;98.44
71105;BME280;58760;48.716;8.962;2023-08-17T09:15:37;96605.94;;;22.06;95.40
71105;BME280;58760;48.716;8.962;2023-08-17T09:18:38;96595.72;;;22.24;91.15
71105;BME280;58760;48.716;8.962;2023-08-17T09:21:43;96603.34;;;22.44;87.26
71105;BME280;58760;48.716;8.962;2023-08-17T09:24:37;96587.13;;;22.77;86.85
71105;BME280;58760;48.716;8.962;2023-08-17T09:27:39;96595.28;;;22.99;86.94
71105;BME280;58760;48.716;8.962;2023-08-17T09:31:14;96601.47;;;22.95;88.71
71105;BME280;58760;48.716;8.962;2023-08-17T09:34:30;96590.19;;;23.03;86.78
71105;BME280;58760;48.716;8.962;2023-08-17T09:37:40;96597.44;;;23.19;87.33
71105;BME280;58760;48.716;8.962;2023-08-17T09:40:37;96596.03;;;23.33;87.76
71105;BME280;58760;48.716;8.962;2023-08-17T09:43:30;96587.22;;;23.64;88.45
71105;BME280;58760;48.716;8.962;2023-08-17T09:46:50;96591.13;;;23.73;87.62
71105;BME280;58760;48.716;8.962;2023-08-17T09:57:19;96591.50;;;23.82;87.11
71105;BME280;58760;48.716;8.962;2023-08-17T10:07:38;96581.22;;;24.11;81.87
71105;BME280;58760;48.716;8.962;2023-08-17T10:11:22;96582.50;;;24.30;82.21
71105;BME280;58760;48.716;8.962;2023-08-17T10:14:29;96579.34;;;24.43;79.77
71105;BME280;58760;48.716;8.962;2023-08-17T10:21:54;96577.66;;;24.32;79.66
71105;BME280;58760;48.716;8.962;2023-08-17T10:24:49;96573.19;;;24.21;77.99
71105;BME280;58760;48.716;8.962;2023-08-17T10:28:13;96578.44;;;24.32;76.60
71105;BME280;58760;48.716;8.962;2023-08-17T10:31:15;96575.88;;;24.48;78.72
71105;BME280;58760;48.716;8.962;2023-08-17T10:34:04;96572.59;;;24.45;72.58
71105;BME280;58760;48.716;8.962;2023-08-17T10:36:51;96574.00;;;24.53;72.00
71105;BME280;58760;48.716;8.962;2023-08-17T10:40:11;96567.09;;;24.72;70.53
71105;BME280;58760;48.716;8.962;2023-08-17T10:43:52;96578.53;;;24.74;71.02
71105;BME280;58760;48.716;8.962;2023-08-17T10:46:49;96571.81;;;24.82;69.19
71105;BME280;58760;48.716;8.962;2023-08-17T10:53:04;96573.19;;;25.36;74.05
71105;BME280;58760;48.716;8.962;2023-08-17T10:56:27;96573.09;;;25.68;70.45
71105;BME280;58760;48.716;8.962;2023-08-17T10:59:42;96558.19;;;25.96;68.84
71105;BME280;58760;48.716;8.962;2023-08-17T11:07:06;96560.69;;;26.58;66.41
71105;BME280;58760;48.716;8.962;2023-08-17T11:14:01;96558.22;;;26.97;62.99
71105;BME280;58760;48.716;8.962;2023-08-17T11:17:08;96541.56;;;27.14;61.69
71105;BME280;58760;48.716;8.962;2023-08-17T11:20:08;96535.59;;;27.12;60.40
71105;BME280;58760;48.716;8.962;2023-08-17T11:23:06;96537.50;;;27.06;61.36
71105;BME280;58760;48.716;8.962;2023-08-17T11:26:26;96537.50;;;26.96;63.40
71105;BME280;58760;48.716;8.962;2023-08-17T11:29:32;96537.50;;;26.96;63.77
71105;BME280;58760;48.716;8.962;2023-08-17T11:32:23;96535.31;;;27.08;64.79
71105;BME280;58760;48.716;8.962;2023-08-17T11:35:36;96537.47;;;27.16;62.24
71105;BME280;58760;48.716;8.962;2023-08-17T11:38:38;96539.41;;;27.11;61.35
71105;BME280;58760;48.716;8.962;2023-08-17T11:41:34;96544.03;;;27.10;61.83
71105;BME280;58760;48.716;8.962;2023-08-17T11:45:04;96544.88;;;27.00;61.06
71105;BME280;58760;48.716;8.962;2023-08-17T11:48:02;96548.97;;;26.98;59.29
71105;BME280;58760;48.716;8.962;2023-08-17T11:50:53;96551.44;;;26.74;59.69
71105;BME280;58760;48.716;8.962;2023-08-17T11:53:51;96535.63;;;26.71;60.33
71105;BME280;58760;48.716;8.962;2023-08-17T11:56:40;96533.72;;;26.77;60.56
71105;BME280;58760;48.716;8.962;2023-08-17T11:59:50;96548.19;;;26.82;59.72
71105;BME280;58760;48.716;8.962;2023-08-17T12:02:56;96566.97;;;26.69;59.19
71105;BME280;58760;48.716;8.962;2023-08-17T12:06:22;96577.00;;;26.73;59.18
71105;BME280;58760;48.716;8.962;2023-08-17T12:09:37;96571.59;;;26.53;61.52
71105;BME280;58760;48.716;8.962;2023-08-17T12:12:58;96577.84;;;26.53;61.69
71105;BME280;58760;48.716;8.962;2023-08-17T12:19:44;96586.28;;;26.22;68.48
71105;BME280;58760;48.716;8.962;2023-08-17T12:30:35;96562.06;;;25.43;76.24
71105;BME280;58760;48.716;8.962;2023-08-17T12:34:04;96563.63;;;25.24;79.10
71105;BME280;58760;48.716;8.962;2023-08-17T12:37:02;96589.09;;;25.13;78.26
71105;BME280;58760;48.716;8.962;2023-08-17T12:40:03;96612.97;;;25.11;80.13
71105;BME280;58760;48.716;8.962;2023-08-17T12:43:04;96631.00;;;24.53;90.14
71105;BME280;58760;48.716;8.962;2023-08-17T12:46:11;96649.59;;;24.13;93.40
71105;BME280;58760;48.716;8.962;2023-08-17T12:49:26;96658.31;;;23.71;100.00
71105;BME280;58760;48.716;8.962;2023-08-17T12:53:09;96698.19;;;20.35;100.00
71105;BME280;58760;48.716;8.962;2023-08-17T13:12:06;96594.09;;;19.15;100.00
71105;BME280;58760;48.716;8.962;2023-08-17T13:18:44;96597.13;;;19.00;100.00
71105;BME280;58760;48.716;8.962;2023-08-17T13:21:53;96595.28;;;19.01;100.00
71105;BME280;58760;48.716;8.962;2023-08-17T13:28:09;96598.69;;;19.26;100.00
71105;BME280;58760;48.716;8.962;2023-08-17T13:31:03;96608.88;;;19.42;100.00
71105;BME280;58760;48.716;8.962;2023-08-17T13:33:49;96605.09;;;19.61;100.00
71105;BME280;58760;48.716;8.962;2023-08-17T13:44:21;96592.47;;;20.33;100.00
71105;BME280;58760;48.716;8.962;2023-08-17T13:47:16;96580.16;;;20.49;100.00
71105;BME280;58760;48.716;8.962;2023-08-17T13:54:03;96577.59;;;21.00;100.00
71105;BME280;58760;48.716;8.962;2023-08-17T13:57:13;96570.28;;;21.24;100.00
71105;BME280;58760;48.716;8.962;2023-08-17T14:03:40;96558.97;;;21.38;100.00
71105;BME280;58760;48.716;8.962;2023-08-17T14:06:55;96550.00;;;21.50;100.00
71105;BME280;58760;48.716;8.962;2023-08-17T14:10:35;96555.66;;;21.48;100.00
71105;BME280;58760;48.716;8.962;2023-08-17T14:18:17;96539.94;;;21.45;100.00
71105;BME280;58760;48.716;8.962;2023-08-17T14:29:28;96511.00;;;22.02;100.00
71105;BME280;58760;48.716;8.962;2023-08-17T14:32:20;96506.09;;;22.16;100.00
71105;BME280;58760;48.716;8.962;2023-08-17T14:39:16;96527.13;;;22.47;100.00
71105;BME280;58760;48.716;8.962;2023-08-17T14:42:12;96531.84;;;22.57;100.00
71105;BME280;58760;48.716;8.962;2023-08-17T14:45:12;96533.59;;;23.01;100.00
71105;BME280;58760;48.716;8.962;2023-08-17T14:48:07;96529.16;;;23.12;100.00
71105;BME280;58760;48.716;8.962;2023-08-17T14:51:00;96524.75;;;23.49;100.00
71105;BME280;58760;48.716;8.962;2023-08-17T14:53:50;96521.16;;;23.70;100.00
71105;BME280;58760;48.716;8.962;2023-08-17T14:56:50;96525.13;;;24.16;100.00
71105;BME280;58760;48.716;8.962;2023-08-17T15:00:41;96524.53;;;24.41;100.00
71105;BME280;58760;48.716;8.962;2023-08-17T15:04:04;96511.84;;;24.88;100.00
71105;BME280;58760;48.716;8.962;2023-08-17T15:07:05;96495.28;;;25.57;100.00
71105;BME280;58760;48.716;8.962;2023-08-17T15:13:47;96521.09;;;24.97;100.00
71105;BME280;58760;48.716;8.962;2023-08-17T15:16:50;96514.13;;;25.17;100.00
71105;BME280;58760;48.716;8.962;2023-08-17T15:20:00;96506.06;;;24.38;100.00
71105;BME280;58760;48.716;8.962;2023-08-17T15:22:57;96500.13;;;24.83;100.00
71105;BME280;58760;48.716;8.962;2023-08-17T15:26:11;96496.47;;;25.09;100.00
71105;BME280;58760;48.716;8.962;2023-08-17T15:32:56;96493.72;;;25.04;100.00
71105;BME280;58760;48.716;8.962;2023-08-17T15:36:15;96495.00;;;24.91;100.00
71105;BME280;58760;48.716;8.962;2023-08-17T15:40:01;96495.72;;;25.29;100.00
71105;BME280;58760;48.716;8.962;2023-08-17T15:43:29;96483.72;;;25.10;100.00
71105;BME280;58760;48.716;8.962;2023-08-17T15:46:29;96482.00;;;25.71;100.00
71105;BME280;58760;48.716;8.962;2023-08-17T15:49:13;96475.22;;;26.44;95.86
71105;BME280;58760;48.716;8.962;2023-08-17T15:52:01;96462.66;;;26.88;93.63
71105;BME280;58760;48.716;8.962;2023-08-17T15:54:52;96451.59;;;27.24;88.57
71105;BME280;58760;48.716;8.962;2023-08-17T15:57:51;96448.56;;;27.25;79.19
71105;BME280;58760;48.716;8.962;2023-08-17T16:00:55;96448.44;;;27.01;76.25
71105;BME280;58760;48.716;8.962;2023-08-17T16:03:47;96426.91;;;27.00;77.44
71105;BME280;58760;48.716;8.962;2023-08-17T16:06:47;96432.72;;;26.68;76.90
71105;BME280;58760;48.716;8.962;2023-08-17T16:09:37;96438.44;;;26.72;80.42
71105;BME280;58760;48.716;8.962;2023-08-17T16:12:35;96447.44;;;26.57;82.16
71105;BME280;58760;48.716;8.962;2023-08-17T16:15:27;96453.72;;;26.37;80.12
71105;BME280;58760;48.716;8.962;2023-08-17T16:18:20;96458.38;;;26.32;82.92
71105;BME280;58760;48.716;8.962;2023-08-17T16:21:13;96458.38;;;26.42;81.81
71105;BME280;58760;48.716;8.962;2023-08-17T16:24:02;96468.44;;;26.41;83.24
71105;BME280;58760;48.716;8.962;2023-08-17T16:30:13;96478.25;;;26.32;84.25
71105;BME280;58760;48.716;8.962;2023-08-17T16:33:26;96487.75;;;26.35;83.01
71105;BME280;58760;48.716;8.962;2023-08-17T16:36:34;96491.59;;;26.24;83.47
71105;BME280;58760;48.716;8.962;2023-08-17T16:43:12;96489.91;;;26.02;85.62
71105;BME280;58760;48.716;8.962;2023-08-17T16:46:20;96490.47;;;25.84;88.81
71105;BME280;58760;48.716;8.962;2023-08-17T16:49:37;96473.28;;;25.69;82.32
71105;BME280;58760;48.716;8.962;2023-08-17T16:52:39;96477.38;;;25.61;83.00
71105;BME280;58760;48.716;8.962;2023-08-17T16:56:02;96478.94;;;25.42;91.47
71105;BME280;58760;48.716;8.962;2023-08-17T17:02:07;96484.72;;;24.98;98.79
71105;BME280;58760;48.716;8.962;2023-08-17T17:05:11;96491.66;;;24.79;98.25
71105;BME280;58760;48.716;8.962;2023-08-17T17:08:15;96489.66;;;24.65;99.34
71105;BME280;58760;48.716;8.962;2023-08-17T17:11:31;96495.53;;;24.46;100.00
71105;BME280;58760;48.716;8.962;2023-08-17T17:14:43;96498.41;;;24.30;100.00
71105;BME280;58760;48.716;8.962;2023-08-17T17:17:46;96508.94;;;24.21;100.00
71105;BME280;58760;48.716;8.962;2023-08-17T17:20:38;96511.34;;;24.18;100.00
71105;BME280;58760;48.716;8.962;2023-08-17T17:23:36;96516.75;;;24.18;100.00
71105;BME280;58760;48.716;8.962;2023-08-17T17:26:24;96512.97;;;24.19;100.00
71105;BME280;58760;48.716;8.962;2023-08-17T17:29:15;96509.38;;;24.13;100.00
71105;BME280;58760;48.716;8.962;2023-08-17T17:32:29;96521.53;;;24.11;100.00
71105;BME280;58760;48.716;8.962;2023-08-17T17:35:18;96521.75;;;24.04;100.00
71105;BME280;58760;48.716;8.962;2023-08-17T17:38:17;96538.50;;;23.96;100.00
71105;BME280;58760;48.716;8.962;2023-08-17T17:41:03;96552.84;;;23.96;100.00
71105;BME280;58760;48.716;8.962;2023-08-17T17:43:51;96549.59;;;23.94;100.00
71105;BME280;58760;48.716;8.962;2023-08-17T17:47:18;96544.69;;;23.91;100.00
71105;BME280;58760;48.716;8.962;2023-08-17T17:50:34;96537.63;;;23.90;100.00
71105;BME280;58760;48.716;8.962;2023-08-17T17:54:08;96537.91;;;23.89;100.00
71105;BME280;58760;48.716;8.962;2023-08-17T17:57:09;96528.88;;;23.83;100.00
71105;BME280;58760;48.716;8.962;2023-08-17T18:00:22;96513.41;;;23.79;100.00
71105;BME280;58760;48.716;8.962;2023-08-17T18:06:29;96518.91;;;23.62;100.00
71105;BME280;58760;48.716;8.962;2023-08-17T18:09:28;96510.69;;;23.52;100.00
71105;BME280;58760;48.716;8.962;2023-08-17T18:12:59;96512.75;;;23.45;100.00
71105;BME280;58760;48.716;8.962;2023-08-17T18:23:16;96525.34;;;23.13;100.00
71105;BME280;58760;48.716;8.962;2023-08-17T18:26:35;96530.13;;;23.06;100.00
71105;BME280;58760;48.716;8.962;2023-08-17T18:29:43;96532.41;;;22.92;100.00
71105;BME280;58760;48.716;8.962;2023-08-17T18:32:38;96538.50;;;22.82;100.00
71105;BME280;58760;48.716;8.962;2023-08-17T18:35:32;96541.69;;;22.79;100.00
71105;BME280;58760;48.716;8.962;2023-08-17T18:38:46;96531.31;;;22.71;100.00
71105;BME280;58760;48.716;8.962;2023-08-17T18:41:35;96528.84;;;22.70;100.00
71105;BME280;58760;48.716;8.962;2023-08-17T18:44:51;96530.28;;;22.61;100.00
71105;BME280;58760;48.716;8.962;2023-08-17T18:48:01;96526.78;;;22.60;100.00
71105;BME280;58760;48.716;8.962;2023-08-17T18:51:14;96523.84;;;22.62;100.00
71105;BME280;58760;48.716;8.962;2023-08-17T18:54:25;96527.75;;;22.54;100.00
71105;BME280;58760;48.716;8.962;2023-08-17T18:57:41;96530.56;;;22.42;100.00
71105;BME280;58760;48.716;8.962;2023-08-17T19:01:02;96533.34;;;22.31;100.00
71105;BME280;58760;48.716;8.962;2023-08-17T19:04:50;96544.59;;;22.23;100.00
71105;BME280;58760;48.716;8.962;2023-08-17T19:08:02;96535.00;;;22.15;100.00
71105;BME280;58760;48.716;8.962;2023-08-17T19:10:58;96537.31;;;22.07;100.00
71105;BME280;58760;48.716;8.962;2023-08-17T19:13:58;96539.34;;;22.00;100.00
71105;BME280;58760;48.716;8.962;2023-08-17T19:16:59;96539.25;;;21.95;100.00
71105;BME280;58760;48.716;8.962;2023-08-17T19:23:27;96538.44;;;21.94;100.00
71105;BME280;58760;48.716;8.962;2023-08-17T19:26:37;96537.13;;;21.97;100.00
71105;BME280;58760;48.716;8.962;2023-08-17T19:29:43;96543.34;;;21.97;100.00
71105;BME280;58760;48.716;8.962;2023-08-17T19:32:43;96543.69;;;22.01;100.00
71105;BME280;58760;48.716;8.962;2023-08-17T19:35:40;96541.81;;;22.01;100.00
71105;BME280;58760;48.716;8.962;2023-08-17T19:38:52;96548.50;;;21.99;100.00
71105;BME280;58760;48.716;8.962;2023-08-17T19:41:42;96546.78;;;21.93;100.00
71105;BME280;58760;48.716;8.962;2023-08-17T19:45:05;96546.78;;;21.93;100.00
71105;BME280;58760;48.716;8.962;2023-08-17T19:48:23;96551.69;;;21.96;100.00
71105;BME280;58760;48.716;8.962;2023-08-17T19:51:44;96552.50;;;21.96;100.00
71105;BME280;58760;48.716;8.962;2023-08-17T19:54:32;96549.00;;;21.96;100.00
71105;BME280;58760;48.716;8.962;2023-08-17T19:57:47;96551.19;;;21.99;100.00
71105;BME280;58760;48.716;8.962;2023-08-17T20:00:37;96557.09;;;21.96;100.00
71105;BME280;58760;48.716;8.962;2023-08-17T20:04:09;96568.16;;;21.94;100.00
71105;BME280;58760;48.716;8.962;2023-08-17T20:07:14;96572.59;;;21.88;100.00
71105;BME280;58760;48.716;8.962;2023-08-17T20:13:49;96572.03;;;21.86;100.00
71105;BME280;58760;48.716;8.962;2023-08-17T20:21:09;96566.75;;;21.92;100.00
71105;BME280;58760;48.716;8.962;2023-08-17T20:24:20;96570.28;;;21.92;100.00
71105;BME280;58760;48.716;8.962;2023-08-17T20:27:30;96571.09;;;21.93;100.00
71105;BME280;58760;48.716;8.962;2023-08-17T20:30:56;96572.16;;;21.92;100.00
71105;BME280;58760;48.716;8.962;2023-08-17T20:34:22;96570.16;;;21.87;100.00
71105;BME280;58760;48.716;8.962;2023-08-17T20:37:57;96556.22;;;21.78;100.00
71105;BME280;58760;48.716;8.962;2023-08-17T20:41:32;96558.34;;;21.76;100.00
71105;BME280;58760;48.716;8.962;2023-08-17T20:44:31;96559.09;;;21.72;100.00